createdAt,value
2022-12-18T00:01:59.222Z,102739.53
2022-12-18T00:04:28.757Z,102739.81
2022-12-18T00:06:57.082Z,102744.13
2022-12-18T00:09:25.337Z,102739.44
2022-12-18T00:14:44.108Z,102759.94
2022-12-18T00:17:12.283Z,102754.44
2022-12-18T00:19:40.470Z,102761.91
2022-12-18T00:22:08.631Z,102765.75
2022-12-18T00:24:36.898Z,102768.22
2022-12-18T00:27:05.043Z,102772.28
2022-12-18T00:29:34.722Z,102770.94
2022-12-18T00:32:02.984Z,102767.69
2022-12-18T00:34:31.684Z,102769.50
2022-12-18T00:36:59.817Z,102766.31
2022-12-18T00:39:27.956Z,102766.38
2022-12-18T00:42:13.620Z,102773.38
2022-12-18T00:44:43.424Z,102761.75
2022-12-18T00:47:11.557Z,102760.88
2022-12-18T00:49:39.691Z,102771.00
2022-12-18T00:52:07.877Z,102771.50
2022-12-18T00:54:36.035Z,102768.56
2022-12-18T00:57:04.234Z,102762.97
2022-12-18T00:59:32.416Z,102760.00
2022-12-18T01:02:01.969Z,102759.88
2022-12-18T01:04:34.140Z,102762.44
2022-12-18T01:07:02.392Z,102761.75
2022-12-18T01:09:30.546Z,102772.34
2022-12-18T01:11:58.717Z,102773.84
2022-12-18T01:14:27.811Z,102770.44
2022-12-18T01:16:55.993Z,102766.94
2022-12-18T01:19:25.777Z,102772.09
2022-12-18T01:21:53.977Z,102780.81
2022-12-18T01:24:22.143Z,102777.59
2022-12-18T01:26:50.834Z,102772.88
2022-12-18T01:29:18.993Z,102773.00
2022-12-18T01:31:47.255Z,102776.38
2022-12-18T01:34:15.554Z,102769.22
2022-12-18T01:36:45.088Z,102777.75
2022-12-18T01:39:15.417Z,102775.63
2022-12-18T01:42:02.107Z,102785.94
2022-12-18T01:45:07.585Z,102785.91
2022-12-18T01:47:38.987Z,102785.09
2022-12-18T01:50:12.569Z,102782.41
2022-12-18T01:52:44.816Z,102778.03
2022-12-18T01:55:15.951Z,102779.59
2022-12-18T01:57:44.484Z,102780.25
2022-12-18T02:00:15.751Z,102788.06
2022-12-18T02:02:46.777Z,102782.44
2022-12-18T02:05:18.395Z,102782.94
2022-12-18T02:08:11.449Z,102779.03
2022-12-18T02:10:48.716Z,102779.81
2022-12-18T02:13:26.118Z,102793.00
2022-12-18T02:16:02.500Z,102794.03
2022-12-18T02:18:34.763Z,102801.72
2022-12-18T02:21:12.152Z,102797.31
2022-12-18T02:23:53.997Z,102802.94
2022-12-18T02:26:29.789Z,102792.13
2022-12-18T02:29:02.744Z,102787.94
2022-12-18T02:31:38.991Z,102791.78
2022-12-18T02:34:11.072Z,102796.97
2022-12-18T02:36:43.723Z,102792.63
2022-12-18T02:39:15.799Z,102795.47
2022-12-18T02:41:56.917Z,102784.50
2022-12-18T02:44:26.432Z,102784.97
2022-12-18T02:46:56.349Z,102778.50
2022-12-18T02:49:36.283Z,102790.34
2022-12-18T02:52:11.506Z,102793.34
2022-12-18T02:54:54.038Z,102795.34
2022-12-18T02:57:34.934Z,102807.22
2022-12-18T03:00:08.624Z,102821.88
2022-12-18T03:02:46.790Z,102818.69
2022-12-18T03:05:19.293Z,102823.19
2022-12-18T03:07:53.639Z,102824.94
2022-12-18T03:10:27.577Z,102823.63
2022-12-18T03:13:04.946Z,102830.59
2022-12-18T03:15:39.560Z,102831.94
2022-12-18T03:18:15.589Z,102841.31
2022-12-18T03:20:46.433Z,102843.38
2022-12-18T03:23:25.952Z,102843.75
2022-12-18T03:26:11.513Z,102842.34
2022-12-18T03:28:47.884Z,102835.25
2022-12-18T03:31:16.637Z,102850.06
2022-12-18T03:33:52.818Z,102846.66
2022-12-18T03:36:22.112Z,102854.50
2022-12-18T03:38:50.427Z,102851.75
2022-12-18T03:41:28.462Z,102847.03
2022-12-18T03:44:25.904Z,102846.34
2022-12-18T03:47:01.094Z,102844.66
2022-12-18T03:49:36.908Z,102845.78
2022-12-18T03:52:11.725Z,102847.28
2022-12-18T03:54:43.506Z,102849.19
2022-12-18T03:57:20.186Z,102850.72
2022-12-18T03:59:56.205Z,102833.38
2022-12-18T04:02:27.553Z,102838.03
2022-12-18T04:05:01.653Z,102828.06
2022-12-18T04:07:30.366Z,102826.44
2022-12-18T04:10:02.867Z,102832.03
2022-12-18T04:12:32.963Z,102836.38
2022-12-18T04:15:03.284Z,102843.06
2022-12-18T04:17:31.447Z,102839.00
2022-12-18T04:20:00.395Z,102843.59
2022-12-18T04:22:29.133Z,102845.06
2022-12-18T04:25:01.259Z,102850.13
2022-12-18T04:27:40.631Z,102852.88
2022-12-18T04:30:12.735Z,102846.72
2022-12-18T04:32:40.945Z,102848.25
2022-12-18T04:35:11.556Z,102841.41
2022-12-18T04:37:42.464Z,102838.72
2022-12-18T04:40:11.796Z,102839.00
2022-12-18T04:42:44.025Z,102833.09
2022-12-18T04:45:13.646Z,102846.25
2022-12-18T04:47:42.241Z,102850.88
2022-12-18T04:50:10.674Z,102863.56
2022-12-18T04:52:38.807Z,102856.16
2022-12-18T04:55:07.794Z,102875.75
2022-12-18T04:57:35.992Z,102869.19
2022-12-18T05:00:07.007Z,102881.06
2022-12-18T05:02:36.592Z,102888.34
2022-12-18T05:05:05.332Z,102874.88
2022-12-18T05:07:33.513Z,102883.31
2022-12-18T05:10:01.726Z,102887.88
2022-12-18T05:12:29.862Z,102877.22
2022-12-18T05:14:58.000Z,102877.63
2022-12-18T05:17:26.156Z,102871.16
2022-12-18T05:19:55.633Z,102875.59
2022-12-18T05:22:24.177Z,102876.69
2022-12-18T05:24:52.323Z,102875.31
2022-12-18T05:27:21.636Z,102870.72
2022-12-18T05:29:49.790Z,102878.47
2022-12-18T05:32:17.917Z,102887.88
2022-12-18T05:34:46.066Z,102882.56
2022-12-18T05:37:15.541Z,102888.81
2022-12-18T05:39:44.696Z,102894.34
2022-12-18T05:42:12.877Z,102894.47
2022-12-18T05:44:41.519Z,102893.34
2022-12-18T05:47:09.684Z,102898.91
2022-12-18T05:49:37.815Z,102904.63
2022-12-18T05:52:06.293Z,102904.38
2022-12-18T05:54:35.763Z,102912.88
2022-12-18T05:57:03.940Z,102933.84
2022-12-18T05:59:32.233Z,102923.06
2022-12-18T06:02:00.631Z,102923.88
2022-12-18T06:04:29.527Z,102933.00
2022-12-18T06:06:57.825Z,102929.28
2022-12-18T06:09:26.388Z,102933.28
2022-12-18T06:11:55.857Z,102929.06
2022-12-18T06:14:24.341Z,102933.97
2022-12-18T06:16:52.951Z,102932.47
2022-12-18T06:19:21.236Z,102920.59
2022-12-18T06:21:50.222Z,102928.59
2022-12-18T06:24:18.964Z,102937.84
2022-12-18T06:26:47.088Z,102949.31
2022-12-18T06:29:16.766Z,102955.34
2022-12-18T06:31:44.947Z,102952.19
2022-12-18T06:34:13.291Z,102947.19
2022-12-18T06:36:41.436Z,102943.53
2022-12-18T06:39:09.929Z,102941.75
2022-12-18T06:41:38.207Z,102950.63
2022-12-18T06:44:07.785Z,102959.16
2022-12-18T06:46:37.264Z,102968.97
2022-12-18T06:49:05.745Z,102977.44
2022-12-18T06:51:33.864Z,102982.09
2022-12-18T06:54:02.006Z,102982.78
2022-12-18T06:56:30.185Z,102992.53
2022-12-18T06:58:58.431Z,103002.06
2022-12-18T07:01:26.680Z,103006.69
2022-12-18T07:03:57.056Z,103004.72
2022-12-18T07:06:27.080Z,103007.97
2022-12-18T07:08:56.595Z,103015.88
2022-12-18T07:11:24.825Z,103007.72
2022-12-18T07:13:54.377Z,103011.44
2022-12-18T07:16:25.572Z,103002.22
2022-12-18T07:18:54.263Z,103011.53
2022-12-18T07:21:25.578Z,103011.78
2022-12-18T07:23:54.032Z,103009.81
2022-12-18T07:26:24.109Z,103007.09
2022-12-18T07:28:52.377Z,103008.59
2022-12-18T07:31:22.558Z,103011.91
2022-12-18T07:33:51.812Z,103004.31
2022-12-18T07:36:20.773Z,103009.41
2022-12-18T07:38:51.144Z,103004.81
2022-12-18T07:41:19.659Z,103000.66
2022-12-18T07:43:48.330Z,103016.91
2022-12-18T07:46:18.024Z,103003.69
2022-12-18T07:48:50.027Z,102988.75
2022-12-18T07:51:19.835Z,102981.25
2022-12-18T07:53:49.537Z,102986.69
2022-12-18T07:56:31.458Z,102995.25
2022-12-18T07:59:00.371Z,102999.09
2022-12-18T08:01:29.275Z,102995.78
2022-12-18T08:03:57.579Z,102995.06
2022-12-18T08:06:25.726Z,102996.53
2022-12-18T08:08:54.747Z,103003.34
2022-12-18T08:11:25.950Z,102993.16
2022-12-18T08:13:54.791Z,102999.84
2022-12-18T08:16:23.974Z,102998.69
2022-12-18T08:18:53.989Z,103002.44
2022-12-18T08:21:24.803Z,103002.78
2022-12-18T08:23:54.364Z,103012.94
2022-12-18T08:26:25.569Z,103007.78
2022-12-18T08:28:55.993Z,102996.84
2022-12-18T08:31:24.831Z,103004.13
2022-12-18T08:33:54.720Z,103000.69
2022-12-18T08:36:24.257Z,103000.34
2022-12-18T08:38:53.232Z,102987.66
2022-12-18T08:41:21.719Z,102991.19
2022-12-18T08:44:09.218Z,102992.25
2022-12-18T08:46:40.023Z,102999.47
2022-12-18T08:49:09.231Z,103002.47
2022-12-18T08:51:37.629Z,103006.00
2022-12-18T08:54:06.813Z,103012.59
2022-12-18T08:56:35.349Z,103023.16
2022-12-18T08:59:05.321Z,103027.22
2022-12-18T09:01:33.711Z,103013.28
2022-12-18T09:04:02.977Z,103013.28
2022-12-18T09:06:31.158Z,103018.00
2022-12-18T09:09:00.019Z,103035.13
2022-12-18T09:11:30.323Z,103031.09
2022-12-18T09:13:59.734Z,103037.78
2022-12-18T09:16:32.571Z,103030.53
2022-12-18T09:19:01.688Z,103033.56
2022-12-18T09:21:31.667Z,103041.59
2022-12-18T09:24:02.056Z,103046.28
2022-12-18T09:26:30.698Z,103045.19
2022-12-18T09:28:59.047Z,103047.06
2022-12-18T09:31:27.290Z,103038.28
2022-12-18T09:33:58.103Z,103044.53
2022-12-18T09:36:26.480Z,103055.63
2022-12-18T09:38:55.705Z,103051.75
2022-12-18T09:41:41.155Z,103050.28
2022-12-18T09:44:17.861Z,103048.81
2022-12-18T09:46:49.655Z,103053.81
2022-12-18T09:49:23.961Z,103055.47
2022-12-18T09:51:56.672Z,103050.72
2022-12-18T09:54:28.068Z,103053.34
2022-12-18T09:56:56.975Z,103051.25
2022-12-18T09:59:28.545Z,103064.63
2022-12-18T10:01:56.853Z,103063.19
2022-12-18T10:04:33.307Z,103047.44
2022-12-18T10:07:09.838Z,103041.56
2022-12-18T10:09:44.587Z,103033.81
2022-12-18T10:12:23.436Z,103031.44
2022-12-18T10:14:59.017Z,103043.44
2022-12-18T10:17:34.328Z,103030.84
2022-12-18T10:20:12.610Z,103028.75
2022-12-18T10:22:51.082Z,103034.81
2022-12-18T10:25:25.465Z,103031.81
2022-12-18T10:27:55.735Z,103025.31
2022-12-18T10:30:26.296Z,103004.31
2022-12-18T10:32:55.139Z,103003.06
2022-12-18T10:35:26.731Z,103011.16
2022-12-18T10:38:03.263Z,103011.28
2022-12-18T10:40:31.932Z,103017.50
2022-12-18T10:43:06.893Z,103019.78
2022-12-18T10:45:35.038Z,103011.81
2022-12-18T10:48:03.208Z,103015.84
2022-12-18T10:51:09.320Z,103002.16
2022-12-18T10:53:26.186Z,103001.41
2022-12-18T10:55:56.777Z,102995.09
2022-12-18T10:58:28.413Z,102991.94
2022-12-18T11:01:09.996Z,102986.72
2022-12-18T11:03:41.139Z,102978.00
2022-12-18T11:06:13.596Z,102971.84
2022-12-18T11:08:43.687Z,102971.16
2022-12-18T11:11:22.318Z,102962.84
2022-12-18T11:14:02.637Z,102956.09
2022-12-18T11:16:34.866Z,102959.44
2022-12-18T11:19:23.628Z,102959.53
2022-12-18T11:21:53.285Z,102951.06
2022-12-18T11:24:29.483Z,102954.25
2022-12-18T11:26:59.989Z,102948.06
2022-12-18T11:29:35.853Z,102961.72
2022-12-18T11:32:27.102Z,102955.66
2022-12-18T11:35:02.600Z,102961.13
2022-12-18T11:37:33.232Z,102958.38
2022-12-18T11:40:05.031Z,102960.88
2022-12-18T11:42:40.406Z,102949.78
2022-12-18T11:45:28.599Z,102941.22
2022-12-18T11:48:03.258Z,102945.09
2022-12-18T11:50:35.962Z,102949.41
2022-12-18T11:53:06.475Z,102959.09
2022-12-18T11:55:43.647Z,102962.56
2022-12-18T11:58:22.602Z,102965.19
2022-12-18T12:01:05.709Z,102960.47
2022-12-18T12:03:54.084Z,102961.19
2022-12-18T12:06:33.444Z,102972.50
2022-12-18T12:09:12.029Z,102967.31
2022-12-18T12:11:51.823Z,102966.41
2022-12-18T12:14:34.586Z,102964.88
2022-12-18T12:17:11.690Z,102970.78
2022-12-18T12:19:48.030Z,102959.69
2022-12-18T12:22:26.941Z,102959.22
2022-12-18T12:25:16.147Z,102963.84
2022-12-18T12:28:00.033Z,102970.31
2022-12-18T12:30:37.749Z,102958.47
2022-12-18T12:33:22.857Z,102974.63
2022-12-18T12:35:59.745Z,102983.34
2022-12-18T12:38:32.520Z,102981.28
2022-12-18T12:41:05.970Z,102994.00
2022-12-18T12:43:42.319Z,102998.81
2022-12-18T12:46:17.560Z,102997.63
2022-12-18T12:48:50.650Z,103002.94
2022-12-18T12:51:23.428Z,103014.69
2022-12-18T12:53:52.876Z,103012.34
2022-12-18T12:56:24.397Z,103012.75
2022-12-18T12:59:03.391Z,103013.19
2022-12-18T13:01:38.599Z,103001.13
2022-12-18T13:04:18.286Z,103010.44
2022-12-18T13:06:55.678Z,102999.63
2022-12-18T13:09:24.415Z,102996.16
2022-12-18T13:12:11.547Z,102982.78
2022-12-18T13:14:42.697Z,102991.59
2022-12-18T13:17:32.921Z,102980.75
2022-12-18T13:20:07.777Z,102978.09
2022-12-18T13:22:39.074Z,102972.81
2022-12-18T13:25:30.713Z,102985.47
2022-12-18T13:28:07.490Z,102974.69
2022-12-18T13:30:51.708Z,102964.91
2022-12-18T13:36:37.783Z,102967.31
2022-12-18T13:39:36.325Z,102969.19
2022-12-18T13:42:58.541Z,102973.28
2022-12-18T13:46:03.024Z,102976.59
2022-12-18T13:48:35.002Z,102976.88
2022-12-18T13:51:06.448Z,102982.06
2022-12-18T13:53:41.555Z,102984.00
2022-12-18T13:56:10.527Z,102985.69
2022-12-18T13:58:39.077Z,102987.03
2022-12-18T14:01:23.939Z,102991.69
2022-12-18T14:04:10.806Z,102998.50
2022-12-18T14:06:39.391Z,102985.06
2022-12-18T14:09:14.759Z,102988.28
2022-12-18T14:11:52.569Z,102975.03
2022-12-18T14:14:21.736Z,102957.47
2022-12-18T14:16:54.478Z,102957.63
2022-12-18T14:19:23.812Z,102956.88
2022-12-18T14:21:52.609Z,102952.44
2022-12-18T14:24:23.093Z,102948.28
2022-12-18T14:26:52.325Z,102950.81
2022-12-18T14:29:24.683Z,102943.59
2022-12-18T14:32:17.822Z,102940.22
2022-12-18T14:34:48.300Z,102949.06
2022-12-18T14:37:20.091Z,102940.84
2022-12-18T14:39:59.324Z,102940.75
2022-12-18T14:42:29.241Z,102931.25
2022-12-18T14:45:41.340Z,102938.34
2022-12-18T14:48:23.283Z,102934.22
2022-12-18T14:51:01.122Z,102930.78
2022-12-18T14:53:37.508Z,102922.06
2022-12-18T14:56:15.908Z,102921.66
2022-12-18T14:58:48.299Z,102915.38
2022-12-18T15:01:26.132Z,102907.16
2022-12-18T15:03:57.633Z,102896.13
2022-12-18T15:06:31.152Z,102901.19
2022-12-18T15:09:00.289Z,102887.59
2022-12-18T15:11:36.952Z,102894.31
2022-12-18T15:14:24.109Z,102874.78
2022-12-18T15:16:55.029Z,102876.13
2022-12-18T15:19:30.528Z,102886.81
2022-12-18T15:22:06.363Z,102893.09
2022-12-18T15:24:35.324Z,102902.56
2022-12-18T15:27:03.542Z,102914.47
2022-12-18T15:29:31.713Z,102916.47
2022-12-18T15:32:04.866Z,102930.97
2022-12-18T15:34:35.891Z,102943.13
2022-12-18T15:37:04.358Z,102951.63
2022-12-18T15:39:32.893Z,102954.59
2022-12-18T15:42:20.571Z,102951.53
2022-12-18T15:44:49.500Z,102940.06
2022-12-18T15:47:17.670Z,102938.19
2022-12-18T15:49:47.137Z,102945.41
2022-12-18T15:52:26.776Z,102949.66
2022-12-18T15:55:12.664Z,102948.69
2022-12-18T15:57:40.776Z,102932.50
2022-12-18T16:00:14.498Z,102929.59
2022-12-18T16:02:43.124Z,102920.41
2022-12-18T16:05:17.967Z,102920.03
2022-12-18T16:07:46.630Z,102920.50
2022-12-18T16:10:15.266Z,102919.22
2022-12-18T16:12:44.427Z,102916.66
2022-12-18T16:15:22.486Z,102913.94
2022-12-18T16:17:53.200Z,102918.03
2022-12-18T16:20:24.368Z,102919.78
2022-12-18T16:22:54.013Z,102918.50
2022-12-18T16:25:27.658Z,102905.88
2022-12-18T16:27:57.231Z,102916.34
2022-12-18T16:30:29.429Z,102900.94
2022-12-18T16:33:02.029Z,102917.56
2022-12-18T16:35:31.743Z,102904.88
2022-12-18T16:38:00.048Z,102900.78
2022-12-18T16:40:28.238Z,102894.28
2022-12-18T16:42:56.398Z,102896.69
2022-12-18T16:45:24.557Z,102886.13
2022-12-18T16:47:53.019Z,102879.75
2022-12-18T16:50:21.193Z,102882.03
2022-12-18T16:52:50.835Z,102863.00
2022-12-18T16:55:21.902Z,102859.41
2022-12-18T16:57:50.465Z,102864.97
2022-12-18T17:00:18.967Z,102871.44
2022-12-18T17:02:47.391Z,102860.66
2022-12-18T17:05:15.811Z,102868.28
2022-12-18T17:07:44.043Z,102862.72
2022-12-18T17:10:13.515Z,102879.00
2022-12-18T17:12:42.781Z,102884.13
2022-12-18T17:15:12.530Z,102873.81
2022-12-18T17:17:40.670Z,102875.56
2022-12-18T17:20:09.992Z,102881.69
2022-12-18T17:22:38.141Z,102873.91
2022-12-18T17:25:06.649Z,102878.81
2022-12-18T17:27:36.112Z,102876.22
2022-12-18T17:30:04.826Z,102867.75
2022-12-18T17:32:32.972Z,102861.03
2022-12-18T17:35:06.699Z,102850.44
2022-12-18T17:37:37.158Z,102843.00
2022-12-18T17:40:06.387Z,102859.13
2022-12-18T17:42:35.863Z,102862.44
2022-12-18T17:45:04.316Z,102865.63
2022-12-18T17:47:32.473Z,102877.25
2022-12-18T17:50:00.654Z,102876.50
2022-12-18T17:52:28.773Z,102884.88
2022-12-18T17:54:56.981Z,102878.97
2022-12-18T17:57:25.181Z,102874.69
2022-12-18T17:59:54.652Z,102875.63
2022-12-18T18:02:23.882Z,102886.09
2022-12-18T18:04:52.940Z,102884.53
2022-12-18T18:07:21.136Z,102878.06
2022-12-18T18:09:49.334Z,102877.47
2022-12-18T18:12:34.911Z,102873.31
2022-12-18T18:15:06.105Z,102870.06
2022-12-18T18:17:34.292Z,102871.88
2022-12-18T18:20:02.499Z,102876.06
2022-12-18T18:22:30.643Z,102864.25
2022-12-18T18:24:59.267Z,102863.75
2022-12-18T18:27:27.474Z,102859.78
2022-12-18T18:29:56.556Z,102864.84
2022-12-18T18:32:26.091Z,102860.28
2022-12-18T18:34:54.373Z,102860.91
2022-12-18T18:37:23.017Z,102858.97
2022-12-18T18:39:51.623Z,102849.19
2022-12-18T18:42:19.800Z,102846.06
2022-12-18T18:44:49.159Z,102842.25
2022-12-18T18:47:17.634Z,102837.47
2022-12-18T18:49:47.507Z,102832.09
2022-12-18T18:52:15.804Z,102827.53
2022-12-18T18:55:03.531Z,102831.09
2022-12-18T18:57:32.085Z,102822.75
2022-12-18T19:00:00.267Z,102823.56
2022-12-18T19:02:28.554Z,102814.25
2022-12-18T19:04:58.340Z,102803.81
2022-12-18T19:07:30.967Z,102808.41
2022-12-18T19:10:03.902Z,102805.78
2022-12-18T19:12:52.692Z,102799.81
2022-12-18T19:15:21.922Z,102791.69
2022-12-18T19:17:50.337Z,102792.28
2022-12-18T19:20:20.907Z,102799.25
2022-12-18T19:22:55.073Z,102787.03
2022-12-18T19:25:38.045Z,102783.13
2022-12-18T19:28:17.377Z,102780.72
2022-12-18T19:30:50.885Z,102779.84
2022-12-18T19:33:42.213Z,102777.81
2022-12-18T19:36:15.537Z,102771.16
2022-12-18T19:38:44.826Z,102780.31
2022-12-18T19:41:14.982Z,102778.59
2022-12-18T19:43:43.632Z,102775.13
2022-12-18T19:46:15.324Z,102775.13
2022-12-18T19:48:45.096Z,102770.91
2022-12-18T19:51:16.270Z,102757.97
2022-12-18T19:53:45.102Z,102759.97
2022-12-18T19:56:15.478Z,102756.69
2022-12-18T19:58:44.814Z,102766.97
2022-12-18T20:01:16.498Z,102765.72
2022-12-18T20:03:46.984Z,102761.41
2022-12-18T20:06:27.125Z,102753.50
2022-12-18T20:09:00.823Z,102752.56
2022-12-18T20:11:29.867Z,102741.41
2022-12-18T20:13:58.059Z,102747.97
2022-12-18T20:16:26.333Z,102749.75
2022-12-18T20:18:57.208Z,102748.31
2022-12-18T20:21:27.891Z,102744.97
2022-12-18T20:23:56.643Z,102737.75
2022-12-18T20:26:25.087Z,102741.44
2022-12-18T20:28:54.777Z,102744.00
2022-12-18T20:31:23.776Z,102749.75
2022-12-18T20:33:53.441Z,102744.66
2022-12-18T20:36:25.936Z,102731.66
2022-12-18T20:38:59.388Z,102725.59
2022-12-18T20:41:38.197Z,102725.41
2022-12-18T20:44:21.381Z,102716.69
2022-12-18T20:46:50.935Z,102711.25
2022-12-18T20:49:19.067Z,102718.94
2022-12-18T20:51:51.229Z,102722.88
2022-12-18T20:54:20.980Z,102730.34
2022-12-18T20:56:49.171Z,102739.88
2022-12-18T20:59:18.189Z,102732.91
2022-12-18T21:01:48.742Z,102742.25
2022-12-18T21:04:18.659Z,102743.19
2022-12-18T21:06:52.961Z,102727.38
2022-12-18T21:09:25.370Z,102731.19
2022-12-18T21:12:14.131Z,102730.72
2022-12-18T21:14:43.231Z,102727.72
2022-12-18T21:17:12.656Z,102722.88
2022-12-18T21:19:41.114Z,102713.88
2022-12-18T21:22:10.687Z,102715.69
2022-12-18T21:24:40.339Z,102710.03
2022-12-18T21:27:08.495Z,102706.78
2022-12-18T21:29:38.984Z,102700.25
2022-12-18T21:32:09.165Z,102702.59
2022-12-18T21:34:37.621Z,102697.75
2022-12-18T21:37:05.888Z,102690.50
2022-12-18T21:39:34.100Z,102684.88
2022-12-18T21:42:21.471Z,102685.50
2022-12-18T21:44:50.064Z,102667.47
2022-12-18T21:47:22.872Z,102675.84
2022-12-18T21:49:52.688Z,102677.19
2022-12-18T21:52:31.319Z,102670.13
2022-12-18T21:55:08.587Z,102671.13
2022-12-18T21:57:39.550Z,102671.63
2022-12-18T22:00:17.435Z,102667.72
2022-12-18T22:03:01.150Z,102669.91
2022-12-18T22:05:36.647Z,102667.41
2022-12-18T22:08:05.115Z,102671.25
2022-12-18T22:10:33.555Z,102675.19
2022-12-18T22:13:03.296Z,102669.03
2022-12-18T22:15:31.665Z,102670.22
2022-12-18T22:18:00.532Z,102662.44
2022-12-18T22:20:30.007Z,102665.25
2022-12-18T22:22:58.592Z,102654.44
2022-12-18T22:25:27.125Z,102660.94
2022-12-18T22:28:12.768Z,102660.69
2022-12-18T22:30:42.318Z,102647.06
2022-12-18T22:33:10.592Z,102641.19
2022-12-18T22:35:38.762Z,102637.19
2022-12-18T22:38:07.322Z,102641.34
2022-12-18T22:40:35.602Z,102643.31
2022-12-18T22:43:04.117Z,102636.03
2022-12-18T22:45:32.314Z,102623.09
2022-12-18T22:48:03.581Z,102627.41
2022-12-18T22:50:33.725Z,102619.28
2022-12-18T22:53:02.978Z,102619.38
2022-12-18T22:55:31.235Z,102614.06
2022-12-18T22:57:59.389Z,102595.78
2022-12-18T23:00:27.555Z,102599.94
2022-12-18T23:03:00.244Z,102593.91
2022-12-18T23:05:31.914Z,102591.31
2022-12-18T23:08:00.096Z,102585.34
2022-12-18T23:10:29.183Z,102571.25
2022-12-18T23:12:57.448Z,102580.16
2022-12-18T23:15:28.286Z,102572.50
2022-12-18T23:17:58.796Z,102575.16
2022-12-18T23:20:27.846Z,102571.16
2022-12-18T23:22:57.349Z,102560.38
2022-12-18T23:25:25.495Z,102547.25
2022-12-18T23:27:53.858Z,102552.00
2022-12-18T23:30:22.031Z,102544.66
2022-12-18T23:32:50.297Z,102546.25
2022-12-18T23:35:18.883Z,102529.13
2022-12-18T23:38:03.957Z,102527.13
2022-12-18T23:40:33.508Z,102536.91
2022-12-18T23:43:01.742Z,102525.28
2022-12-18T23:45:30.223Z,102523.41
2022-12-18T23:47:58.401Z,102521.72
2022-12-18T23:50:29.527Z,102527.03
2022-12-18T23:53:04.788Z,102520.78
2022-12-18T23:55:40.391Z,102507.50
2022-12-18T23:58:15.313Z,102506.00
